KBLH/BLH METAR and TAF weather

Enter ICAO airport designator
Station Type Date Time Source
KBLH METAR 2019/08/22 02:52 UTC NOAA

KBLH 220252Z AUTO 23008KT 10SM CLR 42/M09 A2960 RMK AO2 SLP016 T04171089 55001


Station Type Date Time Source
KBLH Decoded METAR 2019/08/22 02:52 UTC NOAA

Station name not available
Aug 21, 2019 - 10:52 PM EDT / 2019.08.22 0252 UTC
Wind: from the SW (230 degrees) at 9 MPH (8 KT):0
Visibility: 10 mile(s):0
Sky conditions: clear
Temperature: 107.1 F (41.7 C)
Dew Point: 16.0 F (-8.9 C)
Relative Humidity: 3%
Pressure (altimeter): 29.6 in. Hg (1002 hPa)
Pressure tendency: 0.00 inches (0.1 hPa) lower than three hours ago
ob: KBLH 220252Z AUTO 23008KT 10SM CLR 42/M09 A2960 RMK AO2 SLP016 T04171089 55001
cycle: 3

Station Type Date Time Source
KBLH TAF 2019/08/22 02:12 UTC NOAA

TAF
AMD KBLH 220211Z 2202/2224 23008KT P6SM SKC
FM220900 18005KT P6SM SKC
FM221700 20015G22KT P6SM SKC

Example: see airport list